Terminal Aerodrome Forecast
Issued by NWS

Home | Current Version | Previous Version | Text Only | Print | Product List | Glossary On
Versions: 1 2 3 4 5 6 7 8 9 10 11 12 13 14 15 16 17 18 19 20 21 22 23 24 25 26 27
000
FTUS41 KCTP 211243 AAA
TAFBFD
TAF AMD
KBFD 211243Z 2113/2212 00000KT 1SM BR OVC001
     FM211330 00000KT 4SM BR FEW250
     FM211430 05006KT P6SM FEW250
     FM220400 VRB03KT 2SM BR SKC
     FM220600 VRB02KT 1/4SM FG VV001=

USA.gov is the U.S. government's official web portal to all federal, state and local government web resources and services.